createdAt,value
2019-05-09T00:01:43.887Z,7.68
2019-05-09T00:04:13.917Z,7.68
2019-05-09T00:06:43.108Z,7.62
2019-05-09T00:09:13.729Z,7.60
2019-05-09T00:11:43.845Z,7.57
2019-05-09T00:14:13.573Z,7.61
2019-05-09T00:16:43.755Z,7.58
2019-05-09T00:19:13.524Z,7.61
2019-05-09T00:21:43.819Z,7.60
2019-05-09T00:24:13.919Z,7.59
2019-05-09T00:26:44.292Z,7.57
2019-05-09T00:45:43.785Z,7.65
2019-05-09T00:48:14.051Z,7.59
2019-05-09T00:50:43.718Z,7.57
2019-05-09T00:53:13.774Z,7.59
2019-05-09T00:55:43.657Z,7.63
2019-05-09T00:58:13.555Z,7.60
2019-05-09T01:00:43.963Z,7.60
2019-05-09T01:03:14.158Z,7.56
2019-05-09T01:05:43.638Z,7.55
2019-05-09T01:08:13.730Z,7.57
2019-05-09T01:10:43.668Z,7.57
2019-05-09T01:13:14.199Z,7.54
2019-05-09T01:15:44.023Z,7.50
2019-05-09T01:18:19.491Z,7.53
2019-05-09T01:20:47.910Z,7.49
2019-05-09T01:23:16.294Z,7.49
2019-05-09T01:25:44.635Z,7.53
2019-05-09T01:28:13.921Z,7.51
2019-05-09T01:30:43.865Z,7.56
2019-05-09T01:33:16.278Z,7.52
2019-05-09T01:35:44.601Z,7.43
2019-05-09T01:38:14.290Z,7.36
2019-05-09T01:40:43.902Z,7.32
2019-05-09T01:43:13.801Z,7.40
2019-05-09T01:45:43.208Z,7.49
2019-05-09T01:48:14.003Z,7.37
2019-05-09T01:50:43.132Z,7.30
2019-05-09T01:53:13.512Z,7.23
2019-05-09T01:56:00.590Z,7.15
2019-05-09T01:58:34.177Z,7.13
2019-05-09T02:01:04.693Z,7.13
2019-05-09T02:03:33.767Z,7.12
2019-05-09T02:06:03.466Z,7.12
2019-05-09T02:08:34.213Z,7.25
2019-05-09T02:11:03.765Z,7.31
2019-05-09T02:13:33.901Z,7.26
2019-05-09T02:16:20.183Z,7.18
2019-05-09T02:18:50.116Z,7.12
2019-05-09T02:21:18.521Z,7.15
2019-05-09T02:23:46.929Z,7.12
2019-05-09T02:26:15.208Z,7.10
2019-05-09T02:28:43.551Z,7.05
2019-05-09T02:31:15.729Z,7.04
2019-05-09T02:33:45.111Z,7.06
2019-05-09T02:36:11.947Z,7.00
2019-05-09T02:38:40.259Z,6.97
2019-05-09T02:41:08.875Z,6.96
2019-05-09T02:43:38.849Z,6.90
2019-05-09T02:46:18.841Z,6.87
2019-05-09T02:48:49.503Z,6.82
2019-05-09T02:51:18.563Z,6.77
2019-05-09T02:53:48.588Z,6.73
2019-05-09T02:56:18.876Z,6.70
2019-05-09T02:58:59.501Z,6.67
2019-05-09T03:01:41.120Z,6.60
2019-05-09T03:04:09.468Z,6.49
2019-05-09T03:06:38.924Z,6.46
2019-05-09T03:09:08.871Z,6.51
2019-05-09T03:11:38.760Z,6.38
2019-05-09T03:14:09.141Z,6.28
2019-05-09T03:16:39.773Z,6.29
2019-05-09T03:19:09.029Z,6.29
2019-05-09T03:21:41.600Z,6.32
2019-05-09T03:24:10.327Z,6.28
2019-05-09T03:26:40.314Z,6.27
2019-05-09T03:29:10.293Z,6.13
2019-05-09T03:31:40.237Z,6.19
2019-05-09T03:37:37.831Z,6.22
2019-05-09T03:40:07.879Z,6.05
2019-05-09T03:42:43.393Z,6.09
2019-05-09T03:45:08.469Z,6.13
2019-05-09T03:47:38.408Z,6.14
2019-05-09T03:50:14.424Z,6.13
2019-05-09T03:52:42.738Z,5.95
2019-05-09T03:55:12.746Z,5.78
2019-05-09T03:57:42.962Z,5.79
2019-05-09T04:00:12.070Z,5.58
2019-05-09T04:02:40.391Z,5.67
2019-05-09T04:05:08.768Z,5.62
2019-05-09T04:07:38.438Z,5.61
2019-05-09T04:10:07.771Z,5.62
2019-05-09T04:12:37.597Z,5.63
2019-05-09T04:15:08.441Z,5.42
2019-05-09T04:17:43.566Z,5.48
2019-05-09T04:20:14.920Z,5.42
2019-05-09T04:22:44.775Z,5.32
2019-05-09T04:25:14.724Z,5.31
2019-05-09T04:27:44.659Z,5.32
2019-05-09T04:30:14.031Z,5.30
2019-05-09T04:32:42.370Z,5.31
2019-05-09T04:35:10.952Z,5.11
2019-05-09T04:37:39.226Z,5.10
2019-05-09T04:40:08.229Z,5.04
2019-05-09T04:42:43.081Z,4.98
2019-05-09T04:45:12.670Z,4.99
2019-05-09T04:47:43.479Z,5.11
2019-05-09T04:50:15.409Z,5.19
2019-05-09T04:52:41.018Z,5.30
2019-05-09T04:55:10.115Z,5.33
2019-05-09T04:57:38.417Z,5.33
2019-05-09T05:00:10.094Z,5.15
2019-05-09T05:02:40.250Z,4.97
2019-05-09T05:05:08.651Z,4.89
2019-05-09T05:07:37.621Z,4.84
2019-05-09T05:10:08.806Z,4.93
2019-05-09T05:12:38.102Z,4.91
2019-05-09T05:15:08.081Z,5.03
2019-05-09T05:17:38.131Z,5.16
2019-05-09T05:20:08.769Z,5.29
2019-05-09T05:22:42.374Z,5.40
2019-05-09T05:25:10.819Z,5.54
2019-05-09T05:27:39.203Z,5.65
2019-05-09T05:30:07.919Z,5.79
2019-05-09T05:32:38.579Z,5.84
2019-05-09T05:35:11.558Z,5.92
2019-05-09T05:37:41.265Z,5.95
2019-05-09T05:40:09.737Z,6.06
2019-05-09T05:42:38.833Z,6.17
2019-05-09T05:45:08.321Z,6.26
2019-05-09T05:47:50.955Z,6.39
2019-05-09T05:50:19.511Z,6.47
2019-05-09T05:52:47.854Z,6.54
2019-05-09T05:55:18.264Z,6.63
2019-05-09T05:57:47.792Z,6.71
2019-05-09T06:00:18.278Z,6.82
2019-05-09T06:02:48.682Z,6.86
2019-05-09T06:05:18.729Z,6.89
2019-05-09T06:07:48.313Z,6.94
2019-05-09T06:10:18.633Z,7.00
2019-05-09T06:12:48.162Z,7.11
2019-05-09T06:15:18.243Z,7.19
2019-05-09T06:17:48.396Z,7.31
2019-05-09T06:20:17.762Z,7.39
2019-05-09T06:22:47.698Z,7.48
2019-05-09T06:25:20.751Z,7.49
2019-05-09T06:27:48.403Z,7.53
2019-05-09T06:30:28.883Z,7.60
2019-05-09T06:32:58.108Z,7.72
2019-05-09T06:35:28.219Z,7.86
2019-05-09T06:37:58.762Z,7.96
2019-05-09T06:40:28.694Z,8.07
2019-05-09T06:42:59.817Z,8.21
2019-05-09T06:45:41.399Z,8.29
2019-05-09T06:48:10.285Z,8.37
2019-05-09T06:50:38.601Z,8.54
2019-05-09T06:53:07.997Z,8.61
2019-05-09T06:55:38.571Z,8.75
2019-05-09T11:26:58.914Z,14.87
2019-05-09T11:29:28.133Z,16.04
2019-05-09T11:31:58.733Z,17.08
2019-05-09T11:34:26.701Z,18.06
2019-05-09T11:36:55.006Z,18.63
2019-05-09T11:39:35.725Z,18.37
2019-05-09T11:41:53.465Z,15.66
2019-05-09T11:44:21.878Z,15.72
2019-05-09T11:46:50.170Z,15.73
2019-05-09T11:49:18.488Z,15.47
2019-05-09T11:51:48.251Z,14.94
2019-05-09T11:54:19.497Z,15.24
2019-05-09T11:56:48.270Z,15.03
2019-05-09T11:59:18.893Z,14.96
2019-05-09T12:01:48.212Z,14.70
2019-05-09T12:04:18.751Z,14.75
2019-05-09T12:06:49.133Z,15.71
2019-05-09T12:09:16.858Z,16.87
2019-05-09T12:11:45.137Z,16.16
2019-05-09T12:14:13.444Z,16.52
2019-05-09T12:16:48.194Z,16.07
2019-05-09T12:19:17.975Z,16.55
2019-05-09T12:21:48.067Z,17.39
2019-05-09T12:24:18.375Z,17.57
2019-05-09T12:26:48.157Z,16.46
2019-05-09T12:29:19.276Z,15.38
2019-05-09T12:31:48.494Z,15.09
2019-05-09T12:34:19.299Z,15.54
2019-05-09T12:36:49.471Z,15.60
2019-05-09T12:39:18.823Z,15.91
2019-05-09T12:41:48.423Z,15.91
2019-05-09T12:44:18.297Z,15.37
2019-05-09T12:46:48.817Z,15.54
2019-05-09T12:49:18.965Z,16.10
2019-05-09T12:51:47.021Z,16.98
2019-05-09T12:54:15.475Z,16.61
2019-05-09T12:56:43.940Z,16.88
2019-05-09T12:59:13.748Z,17.04
2019-05-09T13:01:42.064Z,17.65
2019-05-09T13:04:10.371Z,17.08
2019-05-09T13:06:38.645Z,16.55
2019-05-09T13:09:10.194Z,16.40
2019-05-09T13:11:39.260Z,16.14
2019-05-09T13:14:10.051Z,16.10
2019-05-09T13:16:50.787Z,15.81
2019-05-09T13:19:23.018Z,14.83
2019-05-09T13:21:51.338Z,12.51
2019-05-09T13:24:19.967Z,10.19
2019-05-09T13:26:50.239Z,9.59
2019-05-09T13:29:18.621Z,9.57
2019-05-09T13:31:48.152Z,9.54
2019-05-09T13:34:18.910Z,9.81
2019-05-09T13:36:48.936Z,10.30
2019-05-09T13:39:18.056Z,11.27
2019-05-09T13:41:47.581Z,12.51
2019-05-09T13:44:17.845Z,13.50
2019-05-09T13:46:45.466Z,13.99
2019-05-09T13:49:15.512Z,14.59
2019-05-09T13:51:50.872Z,15.08
2019-05-09T13:54:14.368Z,15.64
2019-05-09T13:56:43.010Z,15.73
2019-05-09T13:59:11.490Z,15.87
2019-05-09T14:01:39.983Z,16.38
2019-05-09T14:04:08.385Z,15.97
2019-05-09T14:06:38.822Z,15.82
2019-05-09T14:09:10.345Z,15.04
2019-05-09T14:11:38.536Z,14.74
2019-05-09T14:14:06.852Z,14.05
2019-05-09T14:16:35.309Z,14.86
2019-05-09T14:19:26.110Z,14.03
2019-05-09T14:21:34.652Z,13.52
2019-05-09T14:24:14.158Z,13.54
2019-05-09T14:26:33.495Z,13.57
2019-05-09T14:29:02.081Z,13.60
2019-05-09T14:31:32.535Z,13.77
2019-05-09T14:34:00.602Z,13.73
2019-05-09T14:36:29.010Z,13.48
2019-05-09T14:38:58.158Z,13.47
2019-05-09T14:41:27.743Z,13.71
2019-05-09T14:44:11.162Z,14.08
2019-05-09T14:46:39.480Z,13.98
2019-05-09T14:49:08.086Z,13.98
2019-05-09T14:51:38.097Z,14.47
2019-05-09T14:54:08.317Z,14.59
2019-05-09T14:56:42.170Z,14.95
2019-05-09T14:59:09.764Z,15.42
2019-05-09T15:01:39.957Z,15.21
2019-05-09T15:04:09.085Z,15.28
2019-05-09T15:06:37.506Z,15.54
2019-05-09T15:09:08.267Z,15.69
2019-05-09T15:11:39.600Z,15.75
2019-05-09T15:14:08.353Z,15.47
2019-05-09T15:16:39.223Z,15.52
2019-05-09T15:19:08.353Z,15.45
2019-05-09T15:21:38.219Z,15.40
2019-05-09T15:24:09.241Z,15.34
2019-05-09T15:26:37.434Z,14.94
2019-05-09T15:29:08.076Z,15.02
2019-05-09T15:31:35.813Z,14.82
2019-05-09T15:34:05.330Z,14.78
2019-05-09T15:36:33.820Z,14.59
2019-05-09T15:39:02.209Z,14.84
2019-05-09T15:41:30.638Z,15.08
2019-05-09T15:43:59.309Z,14.97
2019-05-09T15:46:32.098Z,14.71
2019-05-09T15:49:01.674Z,14.42
2019-05-09T15:51:32.094Z,14.49
2019-05-09T15:54:00.204Z,14.27
2019-05-09T15:56:28.893Z,14.14
2019-05-09T15:58:58.063Z,14.05
2019-05-09T16:01:27.869Z,14.08
2019-05-09T16:03:56.538Z,13.96
2019-05-09T16:06:24.892Z,14.02
2019-05-09T16:08:53.291Z,13.65
2019-05-09T16:11:21.615Z,13.51
2019-05-09T16:13:49.964Z,13.39
2019-05-09T16:16:18.547Z,13.26
2019-05-09T16:18:48.541Z,12.97
2019-05-09T16:21:16.938Z,13.02
2019-05-09T16:23:45.460Z,13.08
2019-05-09T16:26:14.251Z,13.51
2019-05-09T16:28:42.675Z,13.80
2019-05-09T16:31:10.993Z,13.83
2019-05-09T16:33:39.330Z,13.66
2019-05-09T16:36:07.714Z,13.65
2019-05-09T16:38:45.258Z,13.71
2019-05-09T16:41:07.681Z,13.68
2019-05-09T16:43:38.595Z,13.33
2019-05-09T16:46:07.613Z,13.46
2019-05-09T16:48:35.338Z,13.35
2019-05-09T16:51:04.498Z,13.47
2019-05-09T16:53:33.053Z,13.61
2019-05-09T16:56:01.484Z,13.78
2019-05-09T16:58:29.876Z,13.64
2019-05-09T17:00:58.275Z,13.25
2019-05-09T17:03:28.410Z,13.40
2019-05-09T17:05:58.277Z,13.27
2019-05-09T17:08:28.206Z,13.28
2019-05-09T17:10:58.714Z,13.39
2019-05-09T17:13:31.326Z,13.21
2019-05-09T17:15:59.715Z,13.19
2019-05-09T17:18:28.493Z,12.70
2019-05-09T17:21:15.170Z,12.59
2019-05-09T17:23:31.908Z,12.74
2019-05-09T17:26:00.641Z,12.88
2019-05-09T17:28:29.098Z,12.77
2019-05-09T17:30:58.023Z,12.65
2019-05-09T17:33:28.740Z,12.55
2019-05-09T17:35:57.825Z,12.50
2019-05-09T17:38:27.805Z,12.32
2019-05-09T17:40:57.721Z,12.19
2019-05-09T17:43:27.791Z,12.20
2019-05-09T17:45:58.400Z,12.23
2019-05-09T17:48:28.492Z,12.25
2019-05-09T17:50:57.931Z,12.30
2019-05-09T17:53:29.305Z,12.31
2019-05-09T17:55:58.614Z,12.25
2019-05-09T17:58:33.249Z,12.22
2019-05-09T18:01:07.975Z,12.11
2019-05-09T18:03:38.474Z,12.11
2019-05-09T18:36:08.461Z,11.87
2019-05-09T18:38:38.765Z,11.84
2019-05-09T18:41:10.257Z,11.80
2019-05-09T18:43:40.560Z,11.78
2019-05-09T18:46:09.991Z,11.59
2019-05-09T18:48:39.525Z,11.12
2019-05-09T18:51:09.125Z,10.78
2019-05-09T18:53:37.956Z,10.56
2019-05-09T18:56:07.355Z,10.38
2019-05-09T18:58:36.908Z,10.21
2019-05-09T19:01:05.876Z,10.09
2019-05-09T19:03:35.354Z,9.80
2019-05-09T19:06:05.004Z,9.54
2019-05-09T19:08:34.447Z,9.48
2019-05-09T19:11:04.066Z,9.30
2019-05-09T19:13:33.572Z,9.26
2019-05-09T19:16:04.805Z,9.23
2019-05-09T19:18:38.330Z,9.15
2019-05-09T19:21:13.043Z,9.12
2019-05-09T19:23:42.507Z,9.03
2019-05-09T19:26:29.798Z,9.03
2019-05-09T19:28:59.326Z,9.05
2019-05-09T19:31:28.737Z,9.03
2019-05-09T19:33:59.364Z,9.00
2019-05-09T19:36:28.842Z,8.92
2019-05-09T19:38:58.358Z,8.94
2019-05-09T19:41:27.812Z,8.93
2019-05-09T19:43:57.255Z,8.99
2019-05-09T19:46:32.464Z,9.02
2019-05-09T19:49:01.935Z,9.05
2019-05-09T19:51:31.414Z,9.18
2019-05-09T19:54:00.844Z,9.10
2019-05-09T19:56:29.578Z,9.09
2019-05-09T19:58:58.968Z,9.05
2019-05-09T20:01:29.596Z,8.99
2019-05-09T20:04:01.190Z,9.02
2019-05-09T20:06:32.275Z,8.99
2019-05-09T20:09:01.568Z,9.06
2019-05-09T20:11:36.698Z,9.05
2019-05-09T20:14:11.146Z,9.09
2019-05-09T20:16:42.196Z,9.02
2019-05-09T20:19:11.663Z,9.02
2019-05-09T20:21:41.237Z,8.99
2019-05-09T20:24:10.748Z,8.88
2019-05-09T20:26:40.283Z,8.88
2019-05-09T20:29:09.855Z,8.88
2019-05-09T20:31:39.294Z,8.85
2019-05-09T20:34:09.315Z,8.86
2019-05-09T20:36:38.889Z,8.83
2019-05-09T20:39:09.593Z,8.81
2019-05-09T20:41:39.329Z,8.79
2019-05-09T20:44:08.606Z,8.79
2019-05-09T20:46:38.297Z,8.80
2019-05-09T20:49:08.129Z,8.76
2019-05-09T20:51:37.911Z,8.70
2019-05-09T20:54:20.003Z,8.68
2019-05-09T20:56:38.365Z,8.64
2019-05-09T20:59:08.271Z,8.65
2019-05-09T21:01:38.042Z,8.66
2019-05-09T21:04:07.110Z,8.64
2019-05-09T21:06:36.859Z,8.64
2019-05-09T21:09:06.192Z,8.60
2019-05-09T21:11:36.311Z,8.55
2019-05-09T21:14:06.044Z,8.56
2019-05-09T21:16:35.240Z,8.54
2019-05-09T21:19:04.991Z,8.59
2019-05-09T21:21:34.255Z,8.54
2019-05-09T21:24:03.915Z,8.60
2019-05-09T21:26:33.596Z,8.63
2019-05-09T21:29:03.527Z,8.64
2019-05-09T21:31:33.142Z,8.69
2019-05-09T21:34:02.730Z,8.65
2019-05-09T21:36:33.237Z,8.56
2019-05-09T21:39:06.087Z,8.60
2019-05-09T21:41:35.602Z,8.64
2019-05-09T21:44:05.194Z,8.63
2019-05-09T21:46:35.574Z,8.62
2019-05-09T21:49:05.063Z,8.64
2019-05-09T21:51:34.581Z,8.69
2019-05-09T21:54:04.074Z,8.70
2019-05-09T21:56:33.513Z,8.64
2019-05-09T21:59:02.932Z,8.62
2019-05-09T22:01:33.572Z,8.76
2019-05-09T22:04:03.170Z,8.74
2019-05-09T22:06:32.686Z,8.76
2019-05-09T22:09:02.199Z,8.80
2019-05-09T22:11:31.830Z,8.81
2019-05-09T22:14:01.353Z,8.80
2019-05-09T22:16:30.185Z,8.79
2019-05-09T22:18:59.584Z,8.82
2019-05-09T22:21:29.021Z,8.88
2019-05-09T22:23:58.447Z,8.80
2019-05-09T22:26:28.011Z,8.79
2019-05-09T22:28:57.502Z,8.79
2019-05-09T22:31:27.078Z,8.74
2019-05-09T22:33:56.503Z,8.73
2019-05-09T22:36:26.092Z,8.71
2019-05-09T22:38:56.581Z,8.72
2019-05-09T22:41:25.991Z,8.75
2019-05-09T22:43:55.609Z,8.77
2019-05-09T22:46:25.024Z,8.74
2019-05-09T22:48:54.534Z,8.68
2019-05-09T22:51:23.940Z,8.68
2019-05-09T22:53:53.371Z,8.69
2019-05-09T22:56:22.147Z,8.76
2019-05-09T22:58:51.612Z,8.80
2019-05-09T23:01:21.106Z,8.82
2019-05-09T23:03:51.523Z,8.81
2019-05-09T23:06:20.936Z,8.86
2019-05-09T23:08:50.575Z,8.86
2019-05-09T23:11:19.286Z,8.88
2019-05-09T23:13:54.221Z,8.90
2019-05-09T23:16:26.880Z,8.92
2019-05-09T23:18:56.350Z,8.94
2019-05-09T23:21:26.734Z,8.95
2019-05-09T23:23:57.799Z,8.89
2019-05-09T23:26:27.346Z,8.77
2019-05-09T23:28:56.783Z,8.74
2019-05-09T23:31:28.044Z,8.76
2019-05-09T23:33:57.469Z,8.72
2019-05-09T23:36:26.947Z,8.73
2019-05-09T23:39:10.040Z,8.75
2019-05-09T23:41:39.583Z,8.75
2019-05-09T23:44:09.069Z,8.75
2019-05-09T23:46:38.565Z,8.73
2019-05-09T23:49:08.058Z,8.68
2019-05-09T23:51:49.920Z,8.69
2019-05-09T23:54:46.489Z,8.67
2019-05-09T23:57:30.116Z,8.64
